CheckWX is a tool to help pilots better visualize weather data.  It is not intended as a substitute for an official pre-flight weather briefing.

16:21:28 UTC

KGKT METAR
Gatlinburg-Pigeon Forge Airport
Sevierville, Tennessee, USA
Current

26 mins ago

KGKT 291555Z AUTO 32004KT 10SM CLR 25/20 A3005 RMK A01
Observed
May-29 @ 15:55 UTC
Wind
  • 320° at 4 KTS
Visibility
Flight Rules
VFR
Cloud Levels
  • Clear skies
Temperature
25°C / 77°F
Dewpoint
20°C / 68°F
Humidity
74%
Altimeter
30.05" Hg
Pressure
1017.62 hPa
Previous

46 mins ago

KGKT 291535Z AUTO 32004KT 10SM CLR 25/20 A3005 RMK A01
Observed
May-29 @ 15:35 UTC
Wind
  • 320° at 4 KTS
Visibility
Flight Rules
VFR
Cloud Levels
  • Clear skies
Temperature
25°C / 77°F
Dewpoint
20°C / 68°F
Humidity
74%
Altimeter
30.05" Hg
Pressure
1017.62 hPa
Previous

1 hour ago

KGKT 291515Z AUTO 33005KT 10SM CLR 24/20 A3005 RMK A01
Observed
May-29 @ 15:15 UTC
Wind
  • 330° at 5 KTS
Visibility
Flight Rules
VFR
Cloud Levels
  • Clear skies
Temperature
24°C / 75°F
Dewpoint
20°C / 68°F
Humidity
78%
Altimeter
30.05" Hg
Pressure
1017.62 hPa